sensor_id;sensor_type;location;lat;lon;timestamp;P1;durP1;ratioP1;P2;durP2;ratioP2
7661;SDS011;30314;48.184;11.510;2022-10-20T00:01:23;37.20;;;20.70;;
7661;SDS011;30314;48.184;11.510;2022-10-20T00:03:54;42.53;;;22.53;;
7661;SDS011;30314;48.184;11.510;2022-10-20T00:09:09;34.73;;;21.97;;
7661;SDS011;30314;48.184;11.510;2022-10-20T00:11:37;38.37;;;20.13;;
7661;SDS011;30314;48.184;11.510;2022-10-20T00:14:05;32.50;;;20.03;;
7661;SDS011;30314;48.184;11.510;2022-10-20T00:16:34;38.10;;;22.23;;
7661;SDS011;30314;48.184;11.510;2022-10-20T00:19:05;41.60;;;22.13;;
7661;SDS011;30314;48.184;11.510;2022-10-20T00:21:33;35.80;;;20.73;;
7661;SDS011;30314;48.184;11.510;2022-10-20T00:24:02;38.97;;;21.90;;
7661;SDS011;30314;48.184;11.510;2022-10-20T00:26:31;42.77;;;23.00;;
7661;SDS011;30314;48.184;11.510;2022-10-20T00:29:02;34.97;;;21.77;;
7661;SDS011;30314;48.184;11.510;2022-10-20T00:31:30;41.43;;;22.57;;
7661;SDS011;30314;48.184;11.510;2022-10-20T00:33:58;35.80;;;22.00;;
7661;SDS011;30314;48.184;11.510;2022-10-20T00:36:27;41.93;;;23.80;;
7661;SDS011;30314;48.184;11.510;2022-10-20T00:38:56;39.63;;;23.37;;
7661;SDS011;30314;48.184;11.510;2022-10-20T00:41:26;41.53;;;22.67;;
7661;SDS011;30314;48.184;11.510;2022-10-20T00:43:55;46.80;;;22.63;;
7661;SDS011;30314;48.184;11.510;2022-10-20T00:46:26;45.03;;;25.00;;
7661;SDS011;30314;48.184;11.510;2022-10-20T00:48:59;46.93;;;23.00;;
7661;SDS011;30314;48.184;11.510;2022-10-20T00:51:30;48.40;;;23.77;;
7661;SDS011;30314;48.184;11.510;2022-10-20T00:54:02;43.77;;;25.10;;
7661;SDS011;30314;48.184;11.510;2022-10-20T00:56:34;45.40;;;24.87;;
7661;SDS011;30314;48.184;11.510;2022-10-20T00:59:05;49.33;;;25.83;;
7661;SDS011;30314;48.184;11.510;2022-10-20T01:01:33;41.27;;;23.10;;
7661;SDS011;30314;48.184;11.510;2022-10-20T01:04:01;39.00;;;23.30;;
7661;SDS011;30314;48.184;11.510;2022-10-20T01:06:31;43.70;;;23.43;;
7661;SDS011;30314;48.184;11.510;2022-10-20T01:08:59;44.30;;;25.13;;
7661;SDS011;30314;48.184;11.510;2022-10-20T01:11:30;49.27;;;23.80;;
7661;SDS011;30314;48.184;11.510;2022-10-20T01:14:09;43.50;;;25.03;;
7661;SDS011;30314;48.184;11.510;2022-10-20T01:16:53;41.27;;;23.03;;
7661;SDS011;30314;48.184;11.510;2022-10-20T01:22:56;46.57;;;24.07;;
7661;SDS011;30314;48.184;11.510;2022-10-20T01:25:54;42.93;;;22.80;;
7661;SDS011;30314;48.184;11.510;2022-10-20T01:28:36;34.33;;;19.70;;
7661;SDS011;30314;48.184;11.510;2022-10-20T01:34:29;37.67;;;21.00;;
7661;SDS011;30314;48.184;11.510;2022-10-20T01:37:04;40.80;;;21.77;;
7661;SDS011;30314;48.184;11.510;2022-10-20T01:40:00;37.20;;;22.03;;
7661;SDS011;30314;48.184;11.510;2022-10-20T01:42:36;39.60;;;23.00;;
7661;SDS011;30314;48.184;11.510;2022-10-20T01:45:09;37.57;;;21.77;;
7661;SDS011;30314;48.184;11.510;2022-10-20T01:47:41;46.70;;;24.60;;
7661;SDS011;30314;48.184;11.510;2022-10-20T01:50:11;39.37;;;21.00;;
7661;SDS011;30314;48.184;11.510;2022-10-20T01:52:40;38.50;;;23.33;;
7661;SDS011;30314;48.184;11.510;2022-10-20T01:55:11;36.00;;;21.60;;
7661;SDS011;30314;48.184;11.510;2022-10-20T01:57:44;36.27;;;20.23;;
7661;SDS011;30314;48.184;11.510;2022-10-20T02:00:25;40.60;;;21.90;;
7661;SDS011;30314;48.184;11.510;2022-10-20T02:05:55;37.50;;;19.70;;
7661;SDS011;30314;48.184;11.510;2022-10-20T02:08:32;34.53;;;19.93;;
7661;SDS011;30314;48.184;11.510;2022-10-20T02:14:09;36.07;;;20.30;;
7661;SDS011;30314;48.184;11.510;2022-10-20T02:16:41;36.57;;;20.97;;
7661;SDS011;30314;48.184;11.510;2022-10-20T02:19:13;41.07;;;21.77;;
7661;SDS011;30314;48.184;11.510;2022-10-20T02:21:45;40.57;;;21.63;;
7661;SDS011;30314;48.184;11.510;2022-10-20T02:24:14;35.70;;;21.23;;
7661;SDS011;30314;48.184;11.510;2022-10-20T02:26:44;38.40;;;21.97;;
7661;SDS011;30314;48.184;11.510;2022-10-20T02:29:13;39.97;;;21.20;;
7661;SDS011;30314;48.184;11.510;2022-10-20T02:31:44;39.43;;;22.47;;
7661;SDS011;30314;48.184;11.510;2022-10-20T02:34:13;35.67;;;20.67;;
7661;SDS011;30314;48.184;11.510;2022-10-20T02:36:41;40.00;;;21.80;;
7661;SDS011;30314;48.184;11.510;2022-10-20T02:39:10;39.73;;;21.10;;
7661;SDS011;30314;48.184;11.510;2022-10-20T02:41:38;38.53;;;20.90;;
7661;SDS011;30314;48.184;11.510;2022-10-20T02:44:06;37.77;;;20.93;;
7661;SDS011;30314;48.184;11.510;2022-10-20T02:46:34;35.63;;;20.27;;
7661;SDS011;30314;48.184;11.510;2022-10-20T02:49:03;44.23;;;22.87;;
7661;SDS011;30314;48.184;11.510;2022-10-20T02:51:30;40.80;;;21.97;;
7661;SDS011;30314;48.184;11.510;2022-10-20T02:53:58;41.67;;;22.10;;
7661;SDS011;30314;48.184;11.510;2022-10-20T02:56:26;42.80;;;22.60;;
7661;SDS011;30314;48.184;11.510;2022-10-20T02:58:56;36.90;;;21.23;;
7661;SDS011;30314;48.184;11.510;2022-10-20T03:01:24;32.53;;;20.40;;
7661;SDS011;30314;48.184;11.510;2022-10-20T03:03:52;40.93;;;20.93;;
7661;SDS011;30314;48.184;11.510;2022-10-20T03:06:25;37.30;;;20.80;;
7661;SDS011;30314;48.184;11.510;2022-10-20T03:08:53;36.57;;;21.03;;
7661;SDS011;30314;48.184;11.510;2022-10-20T03:11:21;36.10;;;20.57;;
7661;SDS011;30314;48.184;11.510;2022-10-20T03:13:48;33.67;;;20.33;;
7661;SDS011;30314;48.184;11.510;2022-10-20T03:16:16;41.23;;;21.67;;
7661;SDS011;30314;48.184;11.510;2022-10-20T03:18:44;35.57;;;20.70;;
7661;SDS011;30314;48.184;11.510;2022-10-20T03:21:12;40.83;;;20.70;;
7661;SDS011;30314;48.184;11.510;2022-10-20T03:23:41;37.30;;;20.40;;
7661;SDS011;30314;48.184;11.510;2022-10-20T03:26:10;35.50;;;20.20;;
7661;SDS011;30314;48.184;11.510;2022-10-20T03:28:38;44.13;;;22.10;;
7661;SDS011;30314;48.184;11.510;2022-10-20T03:31:06;34.93;;;19.90;;
7661;SDS011;30314;48.184;11.510;2022-10-20T03:33:35;39.87;;;18.27;;
7661;SDS011;30314;48.184;11.510;2022-10-20T03:36:03;33.87;;;20.83;;
7661;SDS011;30314;48.184;11.510;2022-10-20T03:38:32;35.80;;;21.97;;
7661;SDS011;30314;48.184;11.510;2022-10-20T03:41:01;37.10;;;21.27;;
7661;SDS011;30314;48.184;11.510;2022-10-20T03:43:29;35.27;;;20.00;;
7661;SDS011;30314;48.184;11.510;2022-10-20T03:46:00;35.37;;;19.73;;
7661;SDS011;30314;48.184;11.510;2022-10-20T03:48:30;35.10;;;20.07;;
7661;SDS011;30314;48.184;11.510;2022-10-20T03:50:58;33.47;;;19.70;;
7661;SDS011;30314;48.184;11.510;2022-10-20T03:53:27;36.70;;;20.10;;
7661;SDS011;30314;48.184;11.510;2022-10-20T03:55:55;40.83;;;20.90;;
7661;SDS011;30314;48.184;11.510;2022-10-20T03:58:24;37.77;;;21.27;;
7661;SDS011;30314;48.184;11.510;2022-10-20T04:00:52;38.20;;;21.03;;
7661;SDS011;30314;48.184;11.510;2022-10-20T04:03:20;42.23;;;20.80;;
7661;SDS011;30314;48.184;11.510;2022-10-20T04:08:46;38.20;;;21.20;;
7661;SDS011;30314;48.184;11.510;2022-10-20T04:11:13;35.10;;;20.07;;
7661;SDS011;30314;48.184;11.510;2022-10-20T04:13:45;36.87;;;21.17;;
7661;SDS011;30314;48.184;11.510;2022-10-20T04:16:12;40.37;;;21.50;;
7661;SDS011;30314;48.184;11.510;2022-10-20T04:18:40;36.90;;;21.10;;
7661;SDS011;30314;48.184;11.510;2022-10-20T04:21:08;35.83;;;20.20;;
7661;SDS011;30314;48.184;11.510;2022-10-20T04:23:36;44.47;;;20.83;;
7661;SDS011;30314;48.184;11.510;2022-10-20T04:26:07;41.63;;;22.63;;
7661;SDS011;30314;48.184;11.510;2022-10-20T04:28:35;39.00;;;21.60;;
7661;SDS011;30314;48.184;11.510;2022-10-20T04:31:05;35.47;;;21.23;;
7661;SDS011;30314;48.184;11.510;2022-10-20T04:33:34;38.63;;;20.70;;
7661;SDS011;30314;48.184;11.510;2022-10-20T04:36:03;33.30;;;18.40;;
7661;SDS011;30314;48.184;11.510;2022-10-20T04:38:33;29.10;;;18.37;;
7661;SDS011;30314;48.184;11.510;2022-10-20T04:41:01;33.63;;;20.83;;
7661;SDS011;30314;48.184;11.510;2022-10-20T04:43:30;31.70;;;19.50;;
7661;SDS011;30314;48.184;11.510;2022-10-20T04:45:59;37.53;;;19.60;;
7661;SDS011;30314;48.184;11.510;2022-10-20T04:48:34;35.97;;;18.30;;
7661;SDS011;30314;48.184;11.510;2022-10-20T04:51:06;30.73;;;18.70;;
7661;SDS011;30314;48.184;11.510;2022-10-20T04:56:41;39.67;;;19.87;;
7661;SDS011;30314;48.184;11.510;2022-10-20T04:59:08;37.77;;;19.83;;
7661;SDS011;30314;48.184;11.510;2022-10-20T05:01:39;30.73;;;16.80;;
7661;SDS011;30314;48.184;11.510;2022-10-20T05:04:09;38.67;;;20.03;;
7661;SDS011;30314;48.184;11.510;2022-10-20T05:06:37;35.03;;;18.17;;
7661;SDS011;30314;48.184;11.510;2022-10-20T05:09:05;40.77;;;20.50;;
7661;SDS011;30314;48.184;11.510;2022-10-20T05:11:34;35.17;;;20.90;;
7661;SDS011;30314;48.184;11.510;2022-10-20T05:14:03;34.50;;;20.73;;
7661;SDS011;30314;48.184;11.510;2022-10-20T05:19:34;38.90;;;20.30;;
7661;SDS011;30314;48.184;11.510;2022-10-20T05:22:02;40.17;;;19.70;;
7661;SDS011;30314;48.184;11.510;2022-10-20T05:24:31;40.43;;;20.10;;
7661;SDS011;30314;48.184;11.510;2022-10-20T05:27:01;42.33;;;22.23;;
7661;SDS011;30314;48.184;11.510;2022-10-20T05:29:29;42.70;;;20.73;;
7661;SDS011;30314;48.184;11.510;2022-10-20T05:31:57;38.87;;;20.53;;
7661;SDS011;30314;48.184;11.510;2022-10-20T05:34:24;33.70;;;20.47;;
7661;SDS011;30314;48.184;11.510;2022-10-20T05:36:54;44.07;;;22.40;;
7661;SDS011;30314;48.184;11.510;2022-10-20T05:39:21;48.80;;;21.27;;
7661;SDS011;30314;48.184;11.510;2022-10-20T05:41:49;33.27;;;19.80;;
7661;SDS011;30314;48.184;11.510;2022-10-20T05:47:00;36.93;;;19.90;;
7661;SDS011;30314;48.184;11.510;2022-10-20T05:49:28;38.17;;;22.07;;
7661;SDS011;30314;48.184;11.510;2022-10-20T05:51:57;39.07;;;19.43;;
7661;SDS011;30314;48.184;11.510;2022-10-20T05:54:25;43.90;;;20.63;;
7661;SDS011;30314;48.184;11.510;2022-10-20T05:56:53;45.03;;;21.60;;
7661;SDS011;30314;48.184;11.510;2022-10-20T05:59:20;35.57;;;18.70;;
7661;SDS011;30314;48.184;11.510;2022-10-20T06:01:48;39.07;;;21.40;;
7661;SDS011;30314;48.184;11.510;2022-10-20T06:04:18;39.57;;;20.40;;
7661;SDS011;30314;48.184;11.510;2022-10-20T06:06:48;38.47;;;21.67;;
7661;SDS011;30314;48.184;11.510;2022-10-20T06:09:18;50.57;;;21.80;;
7661;SDS011;30314;48.184;11.510;2022-10-20T06:11:47;34.20;;;19.20;;
7661;SDS011;30314;48.184;11.510;2022-10-20T06:14:15;34.80;;;19.93;;
7661;SDS011;30314;48.184;11.510;2022-10-20T06:19:38;40.60;;;21.20;;
7661;SDS011;30314;48.184;11.510;2022-10-20T06:22:05;33.50;;;18.90;;
7661;SDS011;30314;48.184;11.510;2022-10-20T06:24:34;35.53;;;20.80;;
7661;SDS011;30314;48.184;11.510;2022-10-20T06:27:02;35.47;;;19.50;;
7661;SDS011;30314;48.184;11.510;2022-10-20T06:29:30;40.93;;;19.07;;
7661;SDS011;30314;48.184;11.510;2022-10-20T06:31:58;40.17;;;20.60;;
7661;SDS011;30314;48.184;11.510;2022-10-20T06:34:25;34.37;;;20.13;;
7661;SDS011;30314;48.184;11.510;2022-10-20T06:36:53;38.10;;;20.17;;
7661;SDS011;30314;48.184;11.510;2022-10-20T06:39:22;43.10;;;20.80;;
7661;SDS011;30314;48.184;11.510;2022-10-20T06:41:52;41.63;;;21.27;;
7661;SDS011;30314;48.184;11.510;2022-10-20T06:44:21;50.80;;;20.10;;
7661;SDS011;30314;48.184;11.510;2022-10-20T06:46:50;36.20;;;19.63;;
7661;SDS011;30314;48.184;11.510;2022-10-20T06:49:18;49.33;;;18.67;;
7661;SDS011;30314;48.184;11.510;2022-10-20T06:51:46;42.60;;;19.10;;
7661;SDS011;30314;48.184;11.510;2022-10-20T06:54:15;37.37;;;20.57;;
7661;SDS011;30314;48.184;11.510;2022-10-20T06:56:43;41.97;;;20.60;;
7661;SDS011;30314;48.184;11.510;2022-10-20T06:59:12;43.67;;;20.43;;
7661;SDS011;30314;48.184;11.510;2022-10-20T07:01:40;44.17;;;21.50;;
7661;SDS011;30314;48.184;11.510;2022-10-20T07:08:20;42.00;;;19.30;;
7661;SDS011;30314;48.184;11.510;2022-10-20T07:10:56;35.10;;;18.70;;
7661;SDS011;30314;48.184;11.510;2022-10-20T07:13:25;41.77;;;20.43;;
7661;SDS011;30314;48.184;11.510;2022-10-20T07:15:55;39.30;;;20.30;;
7661;SDS011;30314;48.184;11.510;2022-10-20T07:18:23;36.50;;;18.40;;
7661;SDS011;30314;48.184;11.510;2022-10-20T07:20:55;45.07;;;18.60;;
7661;SDS011;30314;48.184;11.510;2022-10-20T07:23:24;38.17;;;18.63;;
7661;SDS011;30314;48.184;11.510;2022-10-20T07:25:55;32.50;;;17.80;;
7661;SDS011;30314;48.184;11.510;2022-10-20T07:28:27;34.87;;;17.13;;
7661;SDS011;30314;48.184;11.510;2022-10-20T07:30:56;36.90;;;17.40;;
7661;SDS011;30314;48.184;11.510;2022-10-20T07:33:25;39.97;;;18.37;;
7661;SDS011;30314;48.184;11.510;2022-10-20T07:35:52;35.30;;;18.23;;
7661;SDS011;30314;48.184;11.510;2022-10-20T07:38:20;33.10;;;17.43;;
7661;SDS011;30314;48.184;11.510;2022-10-20T07:40:48;33.97;;;18.43;;
7661;SDS011;30314;48.184;11.510;2022-10-20T07:43:16;34.40;;;18.00;;
7661;SDS011;30314;48.184;11.510;2022-10-20T07:45:44;27.80;;;17.40;;
7661;SDS011;30314;48.184;11.510;2022-10-20T07:48:13;31.20;;;17.23;;
7661;SDS011;30314;48.184;11.510;2022-10-20T07:50:41;36.10;;;17.37;;
7661;SDS011;30314;48.184;11.510;2022-10-20T07:53:08;33.23;;;17.97;;
7661;SDS011;30314;48.184;11.510;2022-10-20T07:55:36;39.30;;;18.87;;
7661;SDS011;30314;48.184;11.510;2022-10-20T07:58:04;32.43;;;18.03;;
7661;SDS011;30314;48.184;11.510;2022-10-20T08:00:32;38.20;;;17.67;;
7661;SDS011;30314;48.184;11.510;2022-10-20T08:03:07;32.17;;;17.70;;
7661;SDS011;30314;48.184;11.510;2022-10-20T08:05:37;38.13;;;17.10;;
7661;SDS011;30314;48.184;11.510;2022-10-20T08:08:04;36.33;;;17.43;;
7661;SDS011;30314;48.184;11.510;2022-10-20T08:10:32;29.53;;;18.23;;
7661;SDS011;30314;48.184;11.510;2022-10-20T08:13:00;25.17;;;16.03;;
7661;SDS011;30314;48.184;11.510;2022-10-20T08:15:28;30.43;;;15.17;;
7661;SDS011;30314;48.184;11.510;2022-10-20T08:17:56;25.33;;;16.27;;
7661;SDS011;30314;48.184;11.510;2022-10-20T08:20:24;25.33;;;14.57;;
7661;SDS011;30314;48.184;11.510;2022-10-20T08:22:55;22.70;;;13.93;;
7661;SDS011;30314;48.184;11.510;2022-10-20T08:25:23;24.97;;;14.23;;
7661;SDS011;30314;48.184;11.510;2022-10-20T08:27:51;25.43;;;14.70;;
7661;SDS011;30314;48.184;11.510;2022-10-20T08:30:19;21.10;;;14.10;;
7661;SDS011;30314;48.184;11.510;2022-10-20T08:32:49;25.20;;;14.03;;
7661;SDS011;30314;48.184;11.510;2022-10-20T08:35:17;26.47;;;16.40;;
7661;SDS011;30314;48.184;11.510;2022-10-20T08:37:45;24.30;;;14.30;;
7661;SDS011;30314;48.184;11.510;2022-10-20T08:40:16;26.40;;;14.23;;
7661;SDS011;30314;48.184;11.510;2022-10-20T08:42:46;19.90;;;13.50;;
7661;SDS011;30314;48.184;11.510;2022-10-20T08:45:15;20.93;;;13.27;;
7661;SDS011;30314;48.184;11.510;2022-10-20T08:47:45;24.00;;;13.20;;
7661;SDS011;30314;48.184;11.510;2022-10-20T08:50:15;19.53;;;12.20;;
7661;SDS011;30314;48.184;11.510;2022-10-20T08:52:45;19.73;;;14.03;;
7661;SDS011;30314;48.184;11.510;2022-10-20T08:55:19;22.00;;;13.73;;
7661;SDS011;30314;48.184;11.510;2022-10-20T08:57:53;28.97;;;15.30;;
7661;SDS011;30314;48.184;11.510;2022-10-20T09:00:25;23.30;;;13.60;;
7661;SDS011;30314;48.184;11.510;2022-10-20T09:02:53;24.40;;;14.57;;
7661;SDS011;30314;48.184;11.510;2022-10-20T09:05:23;24.63;;;13.83;;
7661;SDS011;30314;48.184;11.510;2022-10-20T09:07:55;22.77;;;14.27;;
7661;SDS011;30314;48.184;11.510;2022-10-20T09:10:26;23.37;;;13.23;;
7661;SDS011;30314;48.184;11.510;2022-10-20T09:12:58;24.50;;;13.60;;
7661;SDS011;30314;48.184;11.510;2022-10-20T09:15:27;20.17;;;14.20;;
7661;SDS011;30314;48.184;11.510;2022-10-20T09:17:58;21.63;;;13.17;;
7661;SDS011;30314;48.184;11.510;2022-10-20T09:20:31;20.70;;;13.30;;
7661;SDS011;30314;48.184;11.510;2022-10-20T09:23:02;19.70;;;12.10;;
7661;SDS011;30314;48.184;11.510;2022-10-20T09:25:48;19.00;;;12.60;;
7661;SDS011;30314;48.184;11.510;2022-10-20T09:28:20;19.60;;;12.47;;
7661;SDS011;30314;48.184;11.510;2022-10-20T09:30:49;20.20;;;11.40;;
7661;SDS011;30314;48.184;11.510;2022-10-20T09:33:22;23.97;;;12.90;;
7661;SDS011;30314;48.184;11.510;2022-10-20T09:35:56;19.10;;;12.67;;
7661;SDS011;30314;48.184;11.510;2022-10-20T09:38:31;23.37;;;13.53;;
7661;SDS011;30314;48.184;11.510;2022-10-20T09:41:06;18.67;;;12.10;;
7661;SDS011;30314;48.184;11.510;2022-10-20T09:43:38;14.13;;;9.33;;
7661;SDS011;30314;48.184;11.510;2022-10-20T09:46:08;15.97;;;10.73;;
7661;SDS011;30314;48.184;11.510;2022-10-20T09:48:38;20.53;;;12.13;;
7661;SDS011;30314;48.184;11.510;2022-10-20T09:51:12;19.60;;;11.60;;
7661;SDS011;30314;48.184;11.510;2022-10-20T09:53:47;16.27;;;10.90;;
7661;SDS011;30314;48.184;11.510;2022-10-20T09:56:26;19.00;;;13.70;;
7661;SDS011;30314;48.184;11.510;2022-10-20T09:58:58;19.53;;;11.87;;
7661;SDS011;30314;48.184;11.510;2022-10-20T10:04:33;19.27;;;11.67;;
7661;SDS011;30314;48.184;11.510;2022-10-20T10:07:03;16.37;;;11.53;;
7661;SDS011;30314;48.184;11.510;2022-10-20T10:09:33;18.70;;;11.70;;
7661;SDS011;30314;48.184;11.510;2022-10-20T10:12:05;17.80;;;11.10;;
7661;SDS011;30314;48.184;11.510;2022-10-20T10:14:47;21.53;;;11.87;;
7661;SDS011;30314;48.184;11.510;2022-10-20T10:17:27;19.40;;;12.40;;
7661;SDS011;30314;48.184;11.510;2022-10-20T10:19:55;16.30;;;11.10;;
7661;SDS011;30314;48.184;11.510;2022-10-20T10:22:23;17.17;;;10.80;;
7661;SDS011;30314;48.184;11.510;2022-10-20T10:24:53;13.90;;;9.93;;
7661;SDS011;30314;48.184;11.510;2022-10-20T10:27:25;19.83;;;10.17;;
7661;SDS011;30314;48.184;11.510;2022-10-20T10:29:54;14.37;;;10.10;;
7661;SDS011;30314;48.184;11.510;2022-10-20T10:32:24;15.83;;;8.77;;
7661;SDS011;30314;48.184;11.510;2022-10-20T10:35:14;18.80;;;9.43;;
7661;SDS011;30314;48.184;11.510;2022-10-20T10:37:48;16.00;;;10.60;;
7661;SDS011;30314;48.184;11.510;2022-10-20T10:40:19;14.77;;;9.50;;
7661;SDS011;30314;48.184;11.510;2022-10-20T10:42:56;13.03;;;9.03;;
7661;SDS011;30314;48.184;11.510;2022-10-20T10:45:42;16.50;;;9.20;;
7661;SDS011;30314;48.184;11.510;2022-10-20T10:48:16;14.27;;;9.60;;
7661;SDS011;30314;48.184;11.510;2022-10-20T10:50:58;14.63;;;9.33;;
7661;SDS011;30314;48.184;11.510;2022-10-20T10:53:31;12.33;;;7.60;;
7661;SDS011;30314;48.184;11.510;2022-10-20T10:56:12;15.00;;;8.63;;
7661;SDS011;30314;48.184;11.510;2022-10-20T10:58:48;12.00;;;8.30;;
7661;SDS011;30314;48.184;11.510;2022-10-20T11:01:33;10.57;;;7.30;;
7661;SDS011;30314;48.184;11.510;2022-10-20T11:04:28;16.20;;;8.30;;
7661;SDS011;30314;48.184;11.510;2022-10-20T11:07:11;15.43;;;7.67;;
7661;SDS011;30314;48.184;11.510;2022-10-20T11:09:50;9.47;;;7.30;;
7661;SDS011;30314;48.184;11.510;2022-10-20T11:12:35;11.90;;;7.70;;
7661;SDS011;30314;48.184;11.510;2022-10-20T11:15:30;12.37;;;7.20;;
7661;SDS011;30314;48.184;11.510;2022-10-20T11:18:11;14.80;;;7.90;;
7661;SDS011;30314;48.184;11.510;2022-10-20T11:20:50;14.27;;;8.03;;
7661;SDS011;30314;48.184;11.510;2022-10-20T11:23:34;12.03;;;6.90;;
7661;SDS011;30314;48.184;11.510;2022-10-20T11:26:24;10.23;;;7.30;;
7661;SDS011;30314;48.184;11.510;2022-10-20T11:28:55;13.90;;;7.73;;
7661;SDS011;30314;48.184;11.510;2022-10-20T11:31:27;9.87;;;7.77;;
7661;SDS011;30314;48.184;11.510;2022-10-20T11:34:02;10.10;;;6.90;;
7661;SDS011;30314;48.184;11.510;2022-10-20T11:36:34;16.67;;;7.43;;
7661;SDS011;30314;48.184;11.510;2022-10-20T11:39:07;10.87;;;6.90;;
7661;SDS011;30314;48.184;11.510;2022-10-20T11:41:42;11.70;;;6.00;;
7661;SDS011;30314;48.184;11.510;2022-10-20T11:44:15;16.47;;;7.50;;
7661;SDS011;30314;48.184;11.510;2022-10-20T11:46:50;13.37;;;7.90;;
7661;SDS011;30314;48.184;11.510;2022-10-20T11:49:24;12.30;;;6.93;;
7661;SDS011;30314;48.184;11.510;2022-10-20T11:52:07;12.20;;;7.07;;
7661;SDS011;30314;48.184;11.510;2022-10-20T11:55:04;11.87;;;7.60;;
7661;SDS011;30314;48.184;11.510;2022-10-20T11:57:53;9.00;;;6.03;;
7661;SDS011;30314;48.184;11.510;2022-10-20T12:00:40;9.80;;;6.10;;
7661;SDS011;30314;48.184;11.510;2022-10-20T12:03:42;9.83;;;6.80;;
7661;SDS011;30314;48.184;11.510;2022-10-20T12:06:25;11.50;;;6.17;;
7661;SDS011;30314;48.184;11.510;2022-10-20T12:09:20;9.00;;;5.13;;
7661;SDS011;30314;48.184;11.510;2022-10-20T12:12:00;9.37;;;6.37;;
7661;SDS011;30314;48.184;11.510;2022-10-20T12:14:32;8.87;;;6.43;;
7661;SDS011;30314;48.184;11.510;2022-10-20T12:26:38;17.40;;;6.47;;
7661;SDS011;30314;48.184;11.510;2022-10-20T12:38:26;11.80;;;4.80;;
7661;SDS011;30314;48.184;11.510;2022-10-20T12:41:00;11.20;;;6.10;;
7661;SDS011;30314;48.184;11.510;2022-10-20T12:43:32;7.77;;;5.77;;
7661;SDS011;30314;48.184;11.510;2022-10-20T12:46:18;11.03;;;6.30;;
7661;SDS011;30314;48.184;11.510;2022-10-20T12:48:48;9.60;;;5.27;;
7661;SDS011;30314;48.184;11.510;2022-10-20T12:51:23;12.17;;;6.40;;
7661;SDS011;30314;48.184;11.510;2022-10-20T12:54:02;10.93;;;6.20;;
7661;SDS011;30314;48.184;11.510;2022-10-20T12:56:36;11.03;;;6.23;;
7661;SDS011;30314;48.184;11.510;2022-10-20T12:59:17;9.00;;;6.13;;
7661;SDS011;30314;48.184;11.510;2022-10-20T13:05:01;7.37;;;5.03;;
7661;SDS011;30314;48.184;11.510;2022-10-20T13:08:00;7.97;;;6.10;;
7661;SDS011;30314;48.184;11.510;2022-10-20T13:10:43;9.50;;;6.47;;
7661;SDS011;30314;48.184;11.510;2022-10-20T13:16:17;10.43;;;5.13;;
7661;SDS011;30314;48.184;11.510;2022-10-20T13:18:48;11.40;;;6.50;;
7661;SDS011;30314;48.184;11.510;2022-10-20T13:21:24;10.73;;;5.70;;
7661;SDS011;30314;48.184;11.510;2022-10-20T13:23:59;11.13;;;5.70;;
7661;SDS011;30314;48.184;11.510;2022-10-20T13:26:30;10.33;;;5.40;;
7661;SDS011;30314;48.184;11.510;2022-10-20T13:29:10;11.53;;;5.37;;
7661;SDS011;30314;48.184;11.510;2022-10-20T13:31:40;8.97;;;5.20;;
7661;SDS011;30314;48.184;11.510;2022-10-20T13:34:14;9.97;;;4.90;;
7661;SDS011;30314;48.184;11.510;2022-10-20T13:36:52;7.67;;;5.90;;
7661;SDS011;30314;48.184;11.510;2022-10-20T13:39:30;10.70;;;5.30;;
7661;SDS011;30314;48.184;11.510;2022-10-20T13:42:06;8.97;;;5.13;;
7661;SDS011;30314;48.184;11.510;2022-10-20T13:47:49;15.00;;;6.63;;
7661;SDS011;30314;48.184;11.510;2022-10-20T13:50:26;10.30;;;5.17;;
7661;SDS011;30314;48.184;11.510;2022-10-20T13:52:57;10.10;;;5.40;;
7661;SDS011;30314;48.184;11.510;2022-10-20T13:55:51;10.03;;;4.97;;
7661;SDS011;30314;48.184;11.510;2022-10-20T13:58:23;9.73;;;6.37;;
7661;SDS011;30314;48.184;11.510;2022-10-20T14:00:59;11.43;;;5.77;;
7661;SDS011;30314;48.184;11.510;2022-10-20T14:03:29;9.70;;;5.07;;
7661;SDS011;30314;48.184;11.510;2022-10-20T14:05:58;6.90;;;4.77;;
7661;SDS011;30314;48.184;11.510;2022-10-20T14:08:25;8.27;;;5.50;;
7661;SDS011;30314;48.184;11.510;2022-10-20T14:10:54;8.50;;;5.27;;
7661;SDS011;30314;48.184;11.510;2022-10-20T14:13:26;11.63;;;6.17;;
7661;SDS011;30314;48.184;11.510;2022-10-20T14:15:58;6.87;;;5.00;;
7661;SDS011;30314;48.184;11.510;2022-10-20T14:18:27;11.53;;;5.87;;
7661;SDS011;30314;48.184;11.510;2022-10-20T14:20:58;10.67;;;5.40;;
7661;SDS011;30314;48.184;11.510;2022-10-20T14:23:28;6.87;;;4.67;;
7661;SDS011;30314;48.184;11.510;2022-10-20T14:26:02;11.50;;;7.23;;
7661;SDS011;30314;48.184;11.510;2022-10-20T14:28:32;12.63;;;5.70;;
7661;SDS011;30314;48.184;11.510;2022-10-20T14:31:03;10.97;;;5.90;;
7661;SDS011;30314;48.184;11.510;2022-10-20T14:33:39;7.30;;;4.90;;
7661;SDS011;30314;48.184;11.510;2022-10-20T14:36:13;12.93;;;5.47;;
7661;SDS011;30314;48.184;11.510;2022-10-20T14:38:47;11.37;;;5.60;;
7661;SDS011;30314;48.184;11.510;2022-10-20T14:41:22;10.77;;;5.67;;
7661;SDS011;30314;48.184;11.510;2022-10-20T14:43:51;16.93;;;7.17;;
7661;SDS011;30314;48.184;11.510;2022-10-20T14:46:24;9.10;;;6.30;;
7661;SDS011;30314;48.184;11.510;2022-10-20T14:48:56;10.07;;;6.40;;
7661;SDS011;30314;48.184;11.510;2022-10-20T14:51:26;16.13;;;6.57;;
7661;SDS011;30314;48.184;11.510;2022-10-20T14:54:12;10.90;;;7.80;;
7661;SDS011;30314;48.184;11.510;2022-10-20T14:56:43;10.13;;;6.10;;
7661;SDS011;30314;48.184;11.510;2022-10-20T14:59:12;9.00;;;5.30;;
7661;SDS011;30314;48.184;11.510;2022-10-20T15:01:45;8.37;;;6.53;;
7661;SDS011;30314;48.184;11.510;2022-10-20T15:04:24;11.47;;;6.30;;
7661;SDS011;30314;48.184;11.510;2022-10-20T15:07:04;11.50;;;7.27;;
7661;SDS011;30314;48.184;11.510;2022-10-20T15:09:40;12.43;;;7.67;;
7661;SDS011;30314;48.184;11.510;2022-10-20T15:12:13;8.90;;;6.23;;
7661;SDS011;30314;48.184;11.510;2022-10-20T15:14:44;11.67;;;6.03;;
7661;SDS011;30314;48.184;11.510;2022-10-20T15:17:34;10.90;;;6.77;;
7661;SDS011;30314;48.184;11.510;2022-10-20T15:22:59;10.40;;;6.33;;
7661;SDS011;30314;48.184;11.510;2022-10-20T15:25:28;11.30;;;7.40;;
7661;SDS011;30314;48.184;11.510;2022-10-20T15:27:58;12.60;;;7.37;;
7661;SDS011;30314;48.184;11.510;2022-10-20T15:30:26;11.20;;;6.80;;
7661;SDS011;30314;48.184;11.510;2022-10-20T15:32:55;10.87;;;6.37;;
7661;SDS011;30314;48.184;11.510;2022-10-20T15:35:23;10.27;;;6.67;;
7661;SDS011;30314;48.184;11.510;2022-10-20T15:37:51;9.87;;;6.30;;
7661;SDS011;30314;48.184;11.510;2022-10-20T15:40:20;9.63;;;5.77;;
7661;SDS011;30314;48.184;11.510;2022-10-20T15:42:47;12.50;;;6.90;;
7661;SDS011;30314;48.184;11.510;2022-10-20T15:45:16;9.60;;;5.73;;
7661;SDS011;30314;48.184;11.510;2022-10-20T15:47:46;11.93;;;6.17;;
7661;SDS011;30314;48.184;11.510;2022-10-20T15:50:16;18.03;;;7.30;;
7661;SDS011;30314;48.184;11.510;2022-10-20T15:52:48;11.57;;;6.60;;
7661;SDS011;30314;48.184;11.510;2022-10-20T15:55:17;10.70;;;6.70;;
7661;SDS011;30314;48.184;11.510;2022-10-20T15:57:48;9.30;;;6.80;;
7661;SDS011;30314;48.184;11.510;2022-10-20T16:00:17;9.33;;;6.00;;
7661;SDS011;30314;48.184;11.510;2022-10-20T16:02:47;14.13;;;8.00;;